createdAt,value
2019-05-20T00:00:19.231Z,86.71
2019-05-20T00:01:19.226Z,86.30
2019-05-20T00:02:24.661Z,87.21
2019-05-20T00:03:20.201Z,87.12
2019-05-20T00:04:19.209Z,87.05
2019-05-20T00:05:19.176Z,86.91
2019-05-20T00:06:19.156Z,87.01
2019-05-20T00:07:19.163Z,87.01
2019-05-20T00:08:19.140Z,86.95
2019-05-20T00:09:19.139Z,87.05
2019-05-20T00:10:19.136Z,86.85
2019-05-20T00:11:19.117Z,87.36
2019-05-20T00:12:19.117Z,87.05
2019-05-20T00:13:19.094Z,86.85
2019-05-20T00:14:19.087Z,86.85
2019-05-20T00:15:19.081Z,87.26
2019-05-20T00:16:19.059Z,87.26
2019-05-20T00:17:19.052Z,86.75
2019-05-20T00:18:19.026Z,86.95
2019-05-20T00:19:19.013Z,87.05
2019-05-20T00:20:19.004Z,87.05
2019-05-20T00:21:19.007Z,86.65
2019-05-20T00:22:18.997Z,87.66
2019-05-20T00:23:18.995Z,87.70
2019-05-20T00:24:18.981Z,87.66
2019-05-20T00:25:18.961Z,87.26
2019-05-20T00:26:18.945Z,87.36
2019-05-20T00:27:18.946Z,87.46
2019-05-20T00:28:18.933Z,87.56
2019-05-20T00:29:18.911Z,87.56
2019-05-20T00:30:18.906Z,87.66
2019-05-20T00:31:18.883Z,87.96
2019-05-20T00:32:18.891Z,87.56
2019-05-20T00:33:18.888Z,87.46
2019-05-20T00:34:32.676Z,87.56
2019-05-20T00:35:19.850Z,87.36
2019-05-20T00:36:18.842Z,87.05
2019-05-20T00:37:18.838Z,87.26
2019-05-20T00:38:18.821Z,86.75
2019-05-20T00:39:18.797Z,86.95
2019-05-20T00:40:18.789Z,86.95
2019-05-20T00:41:18.799Z,86.85
2019-05-20T00:42:18.809Z,86.65
2019-05-20T00:43:18.755Z,87.56
2019-05-20T00:44:18.750Z,86.95
2019-05-20T00:45:18.756Z,87.66
2019-05-20T00:46:18.739Z,87.46
2019-05-20T00:47:18.735Z,87.56
2019-05-20T00:48:18.729Z,87.05
2019-05-20T00:49:18.687Z,87.46
2019-05-20T00:50:18.681Z,87.05
2019-05-20T00:51:18.661Z,86.65
2019-05-20T00:52:18.674Z,86.79
2019-05-20T00:53:18.672Z,87.40
2019-05-20T00:54:18.653Z,88.01
2019-05-20T00:55:18.639Z,87.90
2019-05-20T00:56:18.633Z,87.90
2019-05-20T00:57:18.619Z,88.01
2019-05-20T00:58:18.619Z,87.81
2019-05-20T00:59:18.595Z,87.90
2019-05-20T01:00:18.583Z,87.60
2019-05-20T01:01:18.557Z,88.10
2019-05-20T01:02:18.536Z,87.81
2019-05-20T01:03:18.544Z,87.50
2019-05-20T01:04:18.529Z,87.40
2019-05-20T01:05:18.522Z,87.40
2019-05-20T01:06:18.505Z,87.50
2019-05-20T01:07:18.500Z,87.70
2019-05-20T01:08:18.508Z,86.90
2019-05-20T01:09:18.480Z,87.50
2019-05-20T01:10:18.462Z,87.50
2019-05-20T01:11:18.446Z,87.81
2019-05-20T01:12:18.467Z,87.40
2019-05-20T01:13:18.442Z,87.90
2019-05-20T01:14:18.459Z,88.01
2019-05-20T01:15:18.404Z,88.21
2019-05-20T01:16:18.401Z,88.21
2019-05-20T01:17:18.386Z,87.50
2019-05-20T01:18:18.401Z,87.81
2019-05-20T01:19:18.376Z,87.81
2019-05-20T01:20:18.357Z,87.90
2019-05-20T01:21:18.338Z,88.21
2019-05-20T01:22:18.322Z,87.90
2019-05-20T01:23:18.332Z,88.01
2019-05-20T01:24:18.308Z,88.01
2019-05-20T01:25:18.307Z,87.90
2019-05-20T01:26:18.295Z,87.81
2019-05-20T01:27:18.289Z,88.10
2019-05-20T01:28:18.283Z,88.10
2019-05-20T01:29:18.246Z,88.10
2019-05-20T01:30:18.244Z,88.21
2019-05-20T01:31:18.248Z,88.41
2019-05-20T01:32:18.229Z,88.10
2019-05-20T01:33:18.219Z,88.41
2019-05-20T01:34:18.189Z,88.31
2019-05-20T01:35:18.192Z,88.51
2019-05-20T01:36:18.191Z,88.41
2019-05-20T01:37:18.180Z,88.10
2019-05-20T01:38:18.178Z,88.21
2019-05-20T01:39:18.217Z,88.51
2019-05-20T01:40:18.141Z,88.10
2019-05-20T01:41:18.203Z,88.41
2019-05-20T01:42:18.111Z,88.21
2019-05-20T01:43:18.123Z,88.31
2019-05-20T01:44:18.098Z,88.10
2019-05-20T01:45:18.085Z,88.51
2019-05-20T01:46:18.070Z,88.71
2019-05-20T01:47:18.066Z,88.61
2019-05-20T01:48:18.070Z,88.81
2019-05-20T01:49:18.037Z,88.81
2019-05-20T01:50:18.044Z,89.16
2019-05-20T01:51:18.016Z,89.12
2019-05-20T01:52:18.034Z,88.96
2019-05-20T01:53:18.007Z,88.85
2019-05-20T01:54:17.970Z,88.75
2019-05-20T01:55:17.971Z,89.06
2019-05-20T01:56:17.951Z,89.46
2019-05-20T01:57:17.951Z,89.26
2019-05-20T01:58:17.978Z,89.26
2019-05-20T01:59:17.931Z,89.16
2019-05-20T02:00:17.919Z,89.36
2019-05-20T02:01:17.953Z,89.26
2019-05-20T02:02:17.949Z,89.26
2019-05-20T02:03:30.931Z,89.16
2019-05-20T02:04:18.884Z,89.06
2019-05-20T02:05:17.890Z,89.16
2019-05-20T02:06:17.840Z,89.46
2019-05-20T02:07:17.878Z,89.16
2019-05-20T02:08:17.822Z,89.26
2019-05-20T02:09:17.836Z,89.36
2019-05-20T02:10:17.810Z,89.50
2019-05-20T02:11:17.790Z,89.70
2019-05-20T02:12:17.791Z,90.01
2019-05-20T02:13:17.773Z,89.91
2019-05-20T02:14:17.827Z,90.11
2019-05-20T02:15:17.747Z,90.21
2019-05-20T02:16:17.733Z,90.11
2019-05-20T02:17:17.721Z,90.11
2019-05-20T02:18:17.720Z,90.41
2019-05-20T02:19:17.731Z,90.11
2019-05-20T02:20:17.689Z,90.21
2019-05-20T02:21:17.686Z,90.11
2019-05-20T02:22:17.674Z,90.11
2019-05-20T02:23:17.664Z,90.31
2019-05-20T02:24:17.669Z,90.41
2019-05-20T02:25:17.659Z,90.41
2019-05-20T02:26:17.620Z,90.21
2019-05-20T02:27:17.613Z,90.01
2019-05-20T02:28:17.611Z,90.11
2019-05-20T02:29:17.621Z,90.11
2019-05-20T02:30:17.579Z,89.91
2019-05-20T02:31:17.578Z,89.91
2019-05-20T02:32:17.570Z,89.61
2019-05-20T02:33:17.563Z,89.81
2019-05-20T02:34:17.549Z,89.81
2019-05-20T02:35:17.543Z,90.01
2019-05-20T02:36:17.518Z,89.91
2019-05-20T02:37:17.499Z,90.11
2019-05-20T02:38:17.501Z,90.41
2019-05-20T02:39:17.493Z,90.41
2019-05-20T02:40:17.480Z,90.31
2019-05-20T02:41:17.469Z,90.01
2019-05-20T02:42:17.458Z,90.01
2019-05-20T02:43:17.441Z,90.01
2019-05-20T02:44:17.457Z,90.11
2019-05-20T02:45:17.415Z,89.91
2019-05-20T02:46:17.402Z,89.91
2019-05-20T02:47:17.407Z,90.21
2019-05-20T02:48:17.380Z,90.01
2019-05-20T02:49:17.392Z,90.01
2019-05-20T02:50:17.377Z,90.01
2019-05-20T02:51:17.348Z,90.11
2019-05-20T02:52:17.334Z,90.41
2019-05-20T02:53:17.338Z,90.45
2019-05-20T02:54:17.338Z,90.66
2019-05-20T02:55:17.319Z,90.76
2019-05-20T02:56:17.310Z,90.41
2019-05-20T02:57:17.295Z,90.41
2019-05-20T02:58:17.272Z,90.66
2019-05-20T02:59:17.283Z,90.45
2019-05-20T03:00:17.250Z,90.45
2019-05-20T03:01:17.247Z,90.56
2019-05-20T03:02:17.231Z,90.36
2019-05-20T03:03:17.237Z,90.45
2019-05-20T03:04:17.231Z,90.76
2019-05-20T03:05:17.208Z,90.86
2019-05-20T03:06:17.174Z,90.86
2019-05-20T03:07:17.173Z,91.00
2019-05-20T03:08:17.173Z,91.06
2019-05-20T03:09:17.163Z,91.51
2019-05-20T03:10:17.137Z,90.76
2019-05-20T03:11:17.122Z,91.82
2019-05-20T03:12:17.123Z,91.71
2019-05-20T03:13:17.120Z,91.41
2019-05-20T03:14:17.117Z,91.51
2019-05-20T03:15:17.086Z,91.37
2019-05-20T03:16:17.087Z,91.51
2019-05-20T03:17:17.067Z,90.91
2019-05-20T03:18:17.058Z,91.57
2019-05-20T03:19:17.051Z,91.71
2019-05-20T03:20:17.040Z,91.67
2019-05-20T03:21:17.025Z,91.57
2019-05-20T03:22:17.019Z,91.92
2019-05-20T03:23:17.014Z,91.77
2019-05-20T03:24:16.999Z,91.61
2019-05-20T03:25:16.983Z,91.41
2019-05-20T03:26:16.980Z,91.37
2019-05-20T03:27:16.966Z,91.51
2019-05-20T03:28:16.942Z,91.20
2019-05-20T03:29:16.941Z,91.67
2019-05-20T03:30:16.919Z,91.31
2019-05-20T03:31:16.918Z,91.16
2019-05-20T03:32:16.895Z,91.51
2019-05-20T03:33:16.888Z,91.00
2019-05-20T03:34:41.690Z,91.37
2019-05-20T03:35:17.916Z,91.16
2019-05-20T03:36:16.857Z,91.27
2019-05-20T03:37:16.846Z,90.76
2019-05-20T03:38:16.856Z,91.27
2019-05-20T03:39:16.837Z,90.41
2019-05-20T03:40:16.857Z,90.56
2019-05-20T03:41:16.806Z,90.41
2019-05-20T03:42:16.790Z,90.66
2019-05-20T03:43:16.780Z,90.31
2019-05-20T03:44:16.777Z,90.16
2019-05-20T03:45:16.784Z,90.11
2019-05-20T03:46:16.755Z,89.91
2019-05-20T03:47:16.754Z,89.61
2019-05-20T03:48:16.734Z,89.70
2019-05-20T03:49:16.734Z,89.36
2019-05-20T03:50:16.708Z,89.46
2019-05-20T03:51:16.685Z,89.16
2019-05-20T03:52:16.683Z,89.16
2019-05-20T03:53:16.674Z,88.85
2019-05-20T03:54:16.655Z,88.45
2019-05-20T03:55:16.668Z,88.10
2019-05-20T03:56:16.628Z,88.31
2019-05-20T03:57:16.626Z,88.21
2019-05-20T03:58:16.618Z,88.01
2019-05-20T03:59:16.610Z,87.70
2019-05-20T04:00:16.601Z,87.50
2019-05-20T04:01:16.577Z,87.10
2019-05-20T04:02:16.581Z,87.50
2019-05-20T04:03:16.556Z,87.40
2019-05-20T04:04:16.548Z,86.79
2019-05-20T04:05:16.563Z,87.19
2019-05-20T04:06:16.544Z,86.55
2019-05-20T04:07:16.514Z,87.05
2019-05-20T04:08:16.520Z,86.55
2019-05-20T04:09:16.486Z,86.45
2019-05-20T04:10:16.480Z,85.74
2019-05-20T04:11:16.475Z,86.30
2019-05-20T04:12:16.472Z,85.50
2019-05-20T04:13:16.445Z,85.50
2019-05-20T04:14:16.455Z,84.99
2019-05-20T04:15:16.431Z,84.65
2019-05-20T04:16:16.423Z,83.95
2019-05-20T04:17:16.413Z,82.90
2019-05-20T04:18:16.419Z,82.56
2019-05-20T04:19:16.396Z,82.79
2019-05-20T04:20:16.407Z,82.50
2019-05-20T04:21:16.357Z,82.05
2019-05-20T04:22:16.348Z,82.15
2019-05-20T04:23:16.342Z,81.85
2019-05-20T04:24:16.325Z,81.45
2019-05-20T04:25:16.333Z,81.04
2019-05-20T04:26:16.321Z,80.70
2019-05-20T04:27:16.287Z,81.01
2019-05-20T04:28:16.274Z,80.26
2019-05-20T04:29:16.284Z,80.57
2019-05-20T04:30:18.828Z,80.16
2019-05-20T04:31:16.256Z,79.76
2019-05-20T04:32:16.243Z,79.02
2019-05-20T04:33:16.226Z,78.61
2019-05-20T04:34:16.211Z,78.38
2019-05-20T04:35:22.281Z,78.17
2019-05-20T04:36:17.193Z,77.47
2019-05-20T04:37:16.202Z,77.17
2019-05-20T04:38:16.181Z,77.27
2019-05-20T04:39:16.167Z,77.07
2019-05-20T04:40:16.154Z,77.47
2019-05-20T04:41:16.131Z,77.70
2019-05-20T04:42:16.133Z,78.31
2019-05-20T04:43:16.136Z,78.91
2019-05-20T04:44:16.112Z,78.41
2019-05-20T04:45:16.105Z,79.22
2019-05-20T04:46:16.101Z,79.32
2019-05-20T04:47:16.080Z,78.01
2019-05-20T04:48:16.061Z,78.71
2019-05-20T04:49:16.050Z,78.35
2019-05-20T04:50:16.062Z,78.41
2019-05-20T04:51:16.034Z,78.21
2019-05-20T04:52:16.025Z,77.07
2019-05-20T04:53:15.998Z,77.43
2019-05-20T04:54:15.987Z,75.29
2019-05-20T04:55:15.996Z,75.38
2019-05-20T04:56:15.990Z,74.98
2019-05-20T04:57:15.963Z,74.98
2019-05-20T04:58:15.954Z,74.58
2019-05-20T04:59:15.938Z,75.42
2019-05-20T05:00:15.947Z,76.23
2019-05-20T05:01:15.915Z,75.92
2019-05-20T05:02:15.913Z,76.12
2019-05-20T05:03:15.897Z,75.72
2019-05-20T05:04:15.896Z,75.82
2019-05-20T05:05:15.883Z,75.52
2019-05-20T05:06:15.867Z,75.42
2019-05-20T05:07:15.852Z,74.92
2019-05-20T05:08:15.836Z,75.42
2019-05-20T05:09:15.875Z,75.42
2019-05-20T05:10:15.833Z,75.32
2019-05-20T05:11:15.819Z,75.42
2019-05-20T05:12:15.800Z,75.02
2019-05-20T05:13:15.780Z,75.02
2019-05-20T05:14:15.771Z,75.32
2019-05-20T05:15:15.773Z,75.86
2019-05-20T05:16:15.756Z,75.35
2019-05-20T05:17:15.750Z,75.42
2019-05-20T05:18:15.727Z,73.44
2019-05-20T05:19:15.724Z,71.86
2019-05-20T05:20:18.500Z,70.79
2019-05-20T05:21:15.704Z,68.59
2019-05-20T05:22:15.687Z,67.05
2019-05-20T05:23:15.677Z,65.79
2019-05-20T05:24:15.665Z,65.33
2019-05-20T05:25:15.644Z,65.33
2019-05-20T05:26:15.642Z,64.59
2019-05-20T05:27:15.645Z,63.59
2019-05-20T05:28:15.629Z,63.26
2019-05-20T05:29:15.610Z,62.96
2019-05-20T05:30:15.589Z,63.26
2019-05-20T05:31:15.583Z,63.36
2019-05-20T05:32:15.597Z,63.26
2019-05-20T05:33:15.577Z,63.36
2019-05-20T05:34:15.556Z,62.34
2019-05-20T05:35:15.547Z,63.56
2019-05-20T05:36:15.545Z,62.83
2019-05-20T05:37:15.511Z,62.63
2019-05-20T05:38:15.572Z,63.23
2019-05-20T05:39:15.492Z,62.70
2019-05-20T05:40:15.491Z,62.70
2019-05-20T05:41:15.494Z,61.33
2019-05-20T05:42:15.515Z,62.73
2019-05-20T05:43:15.453Z,63.17
2019-05-20T05:44:15.462Z,63.49
2019-05-20T05:45:15.431Z,64.52
2019-05-20T05:46:15.439Z,65.36
2019-05-20T05:47:15.401Z,66.32
2019-05-20T05:48:15.412Z,67.49
2019-05-20T05:49:15.395Z,66.32
2019-05-20T05:50:15.366Z,66.89
2019-05-20T05:51:15.370Z,65.95
2019-05-20T05:52:15.354Z,65.22
2019-05-20T05:53:15.354Z,63.93
2019-05-20T05:54:15.340Z,62.40
2019-05-20T05:55:15.322Z,60.52
2019-05-20T05:56:15.410Z,58.87
2019-05-20T05:57:15.311Z,56.70
2019-05-20T05:58:15.296Z,56.17
2019-05-20T05:59:15.271Z,55.25
2019-05-20T06:00:15.302Z,54.85
2019-05-20T06:01:15.277Z,54.55
2019-05-20T06:02:15.276Z,54.88
2019-05-20T06:03:15.242Z,56.10
2019-05-20T06:04:15.217Z,56.17
2019-05-20T06:05:15.215Z,54.70
2019-05-20T06:06:15.226Z,54.00
2019-05-20T06:07:15.203Z,52.98
2019-05-20T06:08:15.186Z,53.70
2019-05-20T06:09:15.177Z,54.30
2019-05-20T06:10:15.149Z,54.23
2019-05-20T06:11:15.155Z,54.35
2019-05-20T06:12:15.129Z,55.05
2019-05-20T06:13:15.120Z,54.46
2019-05-20T06:14:15.116Z,54.46
2019-05-20T06:15:15.118Z,55.08
2019-05-20T06:16:15.118Z,55.38
2019-05-20T06:17:15.079Z,53.31
2019-05-20T06:18:15.070Z,52.39
2019-05-20T06:19:15.068Z,51.03
2019-05-20T06:20:15.056Z,48.97
2019-05-20T06:21:15.188Z,47.74
2019-05-20T06:22:15.020Z,47.40
2019-05-20T06:23:15.001Z,45.97
2019-05-20T06:24:15.000Z,46.44
2019-05-20T06:25:15.032Z,44.74
2019-05-20T06:26:15.042Z,43.89
2019-05-20T06:27:14.972Z,42.40
2019-05-20T06:28:14.969Z,42.61
2019-05-20T06:29:14.942Z,42.49
2019-05-20T06:30:14.971Z,41.69
2019-05-20T06:31:14.962Z,41.19
2019-05-20T06:32:15.207Z,41.00
2019-05-20T06:33:14.908Z,40.70
2019-05-20T06:34:15.029Z,41.78
2019-05-20T06:35:15.052Z,41.98
2019-05-20T06:36:26.384Z,41.33
2019-05-20T06:37:15.863Z,41.85
2019-05-20T06:38:14.864Z,42.52
2019-05-20T06:39:14.843Z,41.69
2019-05-20T06:40:14.839Z,41.49
2019-05-20T06:41:14.823Z,41.63
2019-05-20T06:42:14.816Z,43.66
2019-05-20T06:43:14.806Z,44.79
2019-05-20T06:44:14.786Z,44.96
2019-05-20T06:45:14.782Z,43.54
2019-05-20T06:46:14.786Z,42.71
2019-05-20T06:47:14.756Z,42.99
2019-05-20T06:48:14.749Z,41.39
2019-05-20T06:49:14.736Z,40.78
2019-05-20T06:50:14.723Z,40.69
2019-05-20T06:51:14.729Z,41.37
2019-05-20T06:52:14.723Z,41.77
2019-05-20T06:53:14.691Z,41.39
2019-05-20T06:54:14.691Z,41.09
2019-05-20T06:55:14.674Z,40.39
2019-05-20T06:56:14.694Z,40.06
2019-05-20T06:57:14.747Z,39.98
2019-05-20T06:58:14.659Z,39.45
2019-05-20T06:59:14.640Z,40.01
2019-05-20T07:00:14.632Z,38.82
2019-05-20T07:01:14.611Z,38.35
2019-05-20T07:02:14.608Z,39.27
2019-05-20T07:03:14.586Z,39.45
2019-05-20T07:04:14.577Z,39.31
2019-05-20T07:05:14.569Z,38.31
2019-05-20T07:06:14.566Z,37.71
2019-05-20T07:07:20.811Z,38.39
2019-05-20T07:08:15.529Z,38.12
2019-05-20T07:09:14.527Z,37.90
2019-05-20T07:10:14.518Z,37.45
2019-05-20T07:11:14.513Z,37.43
2019-05-20T07:12:14.522Z,37.52
2019-05-20T07:13:16.351Z,36.80
2019-05-20T07:14:14.494Z,36.51
2019-05-20T07:15:14.455Z,37.27
2019-05-20T07:16:14.475Z,35.91
2019-05-20T07:17:14.446Z,35.03
2019-05-20T07:18:14.519Z,36.61
2019-05-20T07:19:14.425Z,36.37
2019-05-20T07:20:14.416Z,36.63
2019-05-20T07:21:14.394Z,37.13
2019-05-20T07:22:14.397Z,37.12
2019-05-20T07:23:14.386Z,38.68
2019-05-20T07:24:14.393Z,36.28
2019-05-20T07:25:14.357Z,34.68
2019-05-20T07:26:14.339Z,34.19
2019-05-20T07:27:14.349Z,33.20
2019-05-20T07:28:14.331Z,34.06
2019-05-20T07:29:14.331Z,32.47
2019-05-20T07:30:15.404Z,33.02
2019-05-20T07:31:14.315Z,31.95
2019-05-20T07:32:14.314Z,33.31
2019-05-20T07:33:14.284Z,32.32
2019-05-20T07:34:14.271Z,32.50
2019-05-20T07:35:28.748Z,31.64
2019-05-20T07:36:15.249Z,32.37
2019-05-20T07:37:14.253Z,33.07
2019-05-20T07:38:14.245Z,33.85
2019-05-20T07:39:14.219Z,33.64
2019-05-20T07:40:14.216Z,33.25
2019-05-20T07:41:14.217Z,33.75
2019-05-20T07:42:14.215Z,33.38
2019-05-20T07:43:14.191Z,33.89
2019-05-20T07:44:14.202Z,34.58
2019-05-20T07:45:14.160Z,35.77
2019-05-20T07:46:14.149Z,36.12
2019-05-20T07:47:14.157Z,37.94
2019-05-20T07:48:14.134Z,38.17
2019-05-20T07:49:14.134Z,40.19
2019-05-20T07:50:14.135Z,41.02
2019-05-20T07:51:14.130Z,40.29
2019-05-20T07:52:14.164Z,39.66
2019-05-20T07:53:14.088Z,38.60
2019-05-20T07:54:14.076Z,36.41
2019-05-20T07:55:14.077Z,35.89
2019-05-20T07:56:14.069Z,35.69
2019-05-20T07:57:14.097Z,35.19
2019-05-20T07:58:14.041Z,34.29
2019-05-20T07:59:14.030Z,34.88
2019-05-20T08:00:14.038Z,34.78
2019-05-20T08:01:14.022Z,35.07
2019-05-20T08:02:14.060Z,34.68
2019-05-20T08:03:14.005Z,34.63
2019-05-20T08:04:14.028Z,33.64
2019-05-20T08:05:13.990Z,32.92
2019-05-20T08:06:13.965Z,31.84
2019-05-20T08:07:27.460Z,32.62
2019-05-20T08:08:14.953Z,31.53
2019-05-20T08:09:13.932Z,31.92
2019-05-20T08:10:13.921Z,31.32
2019-05-20T08:11:13.918Z,31.41
2019-05-20T08:12:13.954Z,31.32
2019-05-20T08:13:13.895Z,31.76
2019-05-20T08:14:13.881Z,32.45
2019-05-20T08:15:13.877Z,31.85
2019-05-20T08:16:13.866Z,32.16
2019-05-20T08:17:13.904Z,32.35
2019-05-20T08:18:13.857Z,33.17
2019-05-20T08:19:13.847Z,34.39
2019-05-20T08:20:13.829Z,33.51
2019-05-20T08:21:13.859Z,34.81
2019-05-20T08:22:13.841Z,35.21
2019-05-20T08:23:13.798Z,35.56
2019-05-20T08:24:13.817Z,34.77
2019-05-20T08:25:13.788Z,33.93
2019-05-20T08:26:13.783Z,32.82
2019-05-20T08:27:13.783Z,31.54
2019-05-20T08:28:13.744Z,31.27
2019-05-20T08:29:13.741Z,31.43
2019-05-20T08:30:14.268Z,31.43
2019-05-20T08:31:13.729Z,31.90
2019-05-20T08:32:13.721Z,31.16
2019-05-20T08:33:13.728Z,32.03
2019-05-20T08:34:13.700Z,31.74
2019-05-20T08:35:13.679Z,31.56
2019-05-20T08:36:13.670Z,32.18
2019-05-20T08:37:13.762Z,32.35
2019-05-20T08:38:13.673Z,31.46
2019-05-20T08:39:13.661Z,32.45
2019-05-20T08:40:13.654Z,32.73
2019-05-20T08:41:13.629Z,30.65
2019-05-20T08:42:13.618Z,30.80
2019-05-20T08:43:13.640Z,30.09
2019-05-20T08:44:13.618Z,29.97
2019-05-20T08:45:13.588Z,28.63
2019-05-20T08:46:13.589Z,29.41
2019-05-20T08:47:13.571Z,29.61
2019-05-20T08:48:13.569Z,29.00
2019-05-20T08:49:13.566Z,28.80
2019-05-20T08:50:16.214Z,29.10
2019-05-20T08:51:13.534Z,29.32
2019-05-20T08:52:13.530Z,30.59
2019-05-20T08:53:13.536Z,29.33
2019-05-20T08:54:13.507Z,30.72
2019-05-20T08:55:13.497Z,31.13
2019-05-20T08:56:13.511Z,30.93
2019-05-20T08:57:13.488Z,30.62
2019-05-20T08:58:13.493Z,29.74
2019-05-20T08:59:13.456Z,30.05
2019-05-20T09:00:13.452Z,29.18
2019-05-20T09:01:13.445Z,28.08
2019-05-20T09:02:13.449Z,27.96
2019-05-20T09:03:13.449Z,28.93
2019-05-20T09:04:13.461Z,27.67
2019-05-20T09:05:13.397Z,27.84
2019-05-20T09:06:13.411Z,27.35
2019-05-20T09:07:13.380Z,26.60
2019-05-20T09:08:13.389Z,28.58
2019-05-20T09:09:13.384Z,28.26
2019-05-20T09:10:13.365Z,27.47
2019-05-20T09:11:13.386Z,28.19
2019-05-20T09:12:13.362Z,28.86
2019-05-20T09:13:13.354Z,27.03
2019-05-20T09:14:13.329Z,28.59
2019-05-20T09:15:13.330Z,29.19
2019-05-20T09:16:13.314Z,29.18
2019-05-20T09:17:13.306Z,29.10
2019-05-20T09:18:13.299Z,29.60
2019-05-20T09:19:13.301Z,28.68
2019-05-20T09:20:13.285Z,27.67
2019-05-20T09:21:13.486Z,28.26
2019-05-20T09:22:13.266Z,27.76
2019-05-20T09:23:13.283Z,27.35
2019-05-20T09:24:13.239Z,26.48
2019-05-20T09:25:13.306Z,27.86
2019-05-20T09:26:13.224Z,26.96
2019-05-20T09:27:13.212Z,26.20
2019-05-20T09:28:13.226Z,26.39
2019-05-20T09:29:13.196Z,26.46
2019-05-20T09:30:13.211Z,25.53
2019-05-20T09:31:13.375Z,27.50
2019-05-20T09:32:13.171Z,28.45
2019-05-20T09:33:13.204Z,27.76
2019-05-20T09:34:13.170Z,27.35
2019-05-20T09:35:13.146Z,26.76
2019-05-20T09:36:13.134Z,25.32
2019-05-20T09:37:13.124Z,26.67
2019-05-20T09:38:20.007Z,26.26
2019-05-20T09:39:14.139Z,24.82
2019-05-20T09:40:13.088Z,26.21
2019-05-20T09:41:13.116Z,26.51
2019-05-20T09:42:13.072Z,26.81
2019-05-20T09:43:13.088Z,26.79
2019-05-20T09:44:13.059Z,26.28
2019-05-20T09:45:13.042Z,24.51
2019-05-20T09:46:13.038Z,24.21
2019-05-20T09:47:13.030Z,23.83
2019-05-20T09:48:13.037Z,24.62
2019-05-20T09:49:13.013Z,24.63
2019-05-20T09:50:12.989Z,24.74
2019-05-20T09:51:12.996Z,24.55
2019-05-20T09:52:12.983Z,25.74
2019-05-20T09:53:13.006Z,25.35
2019-05-20T09:54:12.966Z,26.14
2019-05-20T09:55:12.963Z,27.15
2019-05-20T09:56:12.958Z,29.36
2019-05-20T09:57:12.934Z,30.26
2019-05-20T09:58:12.937Z,31.36
2019-05-20T09:59:16.218Z,29.67
2019-05-20T10:00:12.900Z,31.10
2019-05-20T10:01:12.907Z,29.21
2019-05-20T10:02:12.896Z,28.40
2019-05-20T10:03:12.902Z,27.70
2019-05-20T10:04:12.876Z,27.51
2019-05-20T10:05:12.866Z,26.11
2019-05-20T10:06:12.864Z,26.21
2019-05-20T10:07:12.851Z,25.18
2019-05-20T10:08:12.846Z,27.47
2019-05-20T10:09:12.845Z,28.23
2019-05-20T10:10:12.818Z,27.64
2019-05-20T10:11:12.814Z,28.04
2019-05-20T10:12:12.791Z,28.11
2019-05-20T10:13:12.815Z,27.58
2019-05-20T10:14:12.803Z,26.94
2019-05-20T10:15:12.779Z,27.65
2019-05-20T10:16:12.764Z,28.04
2019-05-20T10:17:12.755Z,28.03
2019-05-20T10:18:12.743Z,27.53
2019-05-20T10:19:12.756Z,27.76
2019-05-20T10:20:12.742Z,26.60
2019-05-20T10:21:12.713Z,26.54
2019-05-20T10:22:12.711Z,27.83
2019-05-20T10:23:15.743Z,28.61
2019-05-20T10:24:12.686Z,27.22
2019-05-20T10:25:12.737Z,26.90
2019-05-20T10:26:12.672Z,26.21
2019-05-20T10:27:12.674Z,26.81
2019-05-20T10:28:12.671Z,26.12
2019-05-20T10:29:12.651Z,26.98
2019-05-20T10:30:12.684Z,26.40
2019-05-20T10:31:12.633Z,28.29
2019-05-20T10:32:12.620Z,26.53
2019-05-20T10:33:12.621Z,26.87
2019-05-20T10:34:12.619Z,26.20
2019-05-20T10:35:12.607Z,25.41
2019-05-20T10:36:12.585Z,25.88
2019-05-20T10:37:12.596Z,26.38
2019-05-20T10:38:12.597Z,26.15
2019-05-20T10:39:12.596Z,28.75
2019-05-20T10:40:12.552Z,29.57
2019-05-20T10:41:12.552Z,30.26
2019-05-20T10:42:12.529Z,30.87
2019-05-20T10:43:12.532Z,30.90
2019-05-20T10:44:12.537Z,30.96
2019-05-20T10:45:12.535Z,28.96
2019-05-20T10:46:12.505Z,28.15
2019-05-20T10:47:12.492Z,29.13
2019-05-20T10:48:12.485Z,28.22
2019-05-20T10:49:12.488Z,27.64
2019-05-20T10:50:12.468Z,27.23
2019-05-20T10:51:12.472Z,27.72
2019-05-20T10:52:12.452Z,27.72
2019-05-20T10:53:12.453Z,28.29
2019-05-20T10:54:12.442Z,27.96
2019-05-20T10:55:12.407Z,26.10
2019-05-20T10:56:12.798Z,26.89
2019-05-20T10:57:12.401Z,27.78
2019-05-20T10:58:12.396Z,27.72
2019-05-20T10:59:12.669Z,28.57
2019-05-20T11:00:12.384Z,30.20
2019-05-20T11:01:12.382Z,31.68
2019-05-20T11:02:12.361Z,31.71
2019-05-20T11:03:12.338Z,32.53
2019-05-20T11:04:12.336Z,33.74
2019-05-20T11:05:12.335Z,34.56
2019-05-20T11:06:12.566Z,35.18
2019-05-20T11:07:12.313Z,35.18
2019-05-20T11:08:12.294Z,35.41
2019-05-20T11:09:14.441Z,36.65
2019-05-20T11:10:12.278Z,38.04
2019-05-20T11:11:14.452Z,38.47
2019-05-20T11:12:12.262Z,39.03
2019-05-20T11:13:12.243Z,41.04
2019-05-20T11:14:12.245Z,41.83
2019-05-20T11:15:12.230Z,40.74
2019-05-20T11:16:12.231Z,41.75
2019-05-20T11:17:14.982Z,43.35
2019-05-20T11:18:12.197Z,42.76
2019-05-20T11:19:12.197Z,43.06
2019-05-20T11:20:12.178Z,42.76
2019-05-20T11:21:12.173Z,43.16
2019-05-20T11:22:12.145Z,43.95
2019-05-20T11:23:12.147Z,43.26
2019-05-20T11:24:12.146Z,44.05
2019-05-20T11:25:12.114Z,43.95
2019-05-20T11:26:12.104Z,43.95
2019-05-20T11:27:12.098Z,42.76
2019-05-20T11:28:12.332Z,43.06
2019-05-20T11:29:12.130Z,42.44
2019-05-20T11:30:12.072Z,42.94
2019-05-20T11:31:12.065Z,41.93
2019-05-20T11:32:12.051Z,42.03
2019-05-20T11:33:12.056Z,42.74
2019-05-20T11:34:12.043Z,41.95
2019-05-20T11:35:12.016Z,42.35
2019-05-20T11:36:12.006Z,42.46
2019-05-20T11:37:12.001Z,43.16
2019-05-20T11:38:12.008Z,44.05
2019-05-20T11:39:11.985Z,43.75
2019-05-20T11:40:12.674Z,42.86
2019-05-20T11:41:11.972Z,42.96
2019-05-20T11:42:11.947Z,42.35
2019-05-20T11:43:11.946Z,42.64
2019-05-20T11:44:12.169Z,42.64
2019-05-20T11:45:11.914Z,42.14
2019-05-20T11:46:11.892Z,42.62
2019-05-20T11:47:11.894Z,42.22
2019-05-20T11:48:11.904Z,42.62
2019-05-20T11:49:11.878Z,42.72
2019-05-20T11:50:11.863Z,43.02
2019-05-20T11:51:11.844Z,43.79
2019-05-20T11:52:11.844Z,43.39
2019-05-20T11:53:11.813Z,42.90
2019-05-20T11:54:11.806Z,42.76
2019-05-20T11:55:11.814Z,41.87
2019-05-20T11:56:12.190Z,41.85
2019-05-20T11:57:11.775Z,41.25
2019-05-20T11:58:16.426Z,40.86
2019-05-20T11:59:11.748Z,40.98
2019-05-20T12:00:11.756Z,40.37
2019-05-20T12:01:11.742Z,40.69
2019-05-20T12:02:11.730Z,41.00
2019-05-20T12:03:11.713Z,40.82
2019-05-20T12:04:11.717Z,42.11
2019-05-20T12:05:11.703Z,41.63
2019-05-20T12:06:11.708Z,42.62
2019-05-20T12:07:11.666Z,42.66
2019-05-20T12:08:11.677Z,44.86
2019-05-20T12:09:11.656Z,45.26
2019-05-20T12:10:11.660Z,45.16
2019-05-20T12:11:11.630Z,44.27
2019-05-20T12:12:11.619Z,44.64
2019-05-20T12:13:11.624Z,43.85
2019-05-20T12:14:11.609Z,44.15
2019-05-20T12:15:11.600Z,43.63
2019-05-20T12:16:11.584Z,42.94
2019-05-20T12:17:11.569Z,44.01
2019-05-20T12:18:11.551Z,42.72
2019-05-20T12:19:11.547Z,43.31
2019-05-20T12:20:12.752Z,42.82
2019-05-20T12:21:11.528Z,43.83
2019-05-20T12:22:11.515Z,42.90
2019-05-20T12:23:11.506Z,43.49
2019-05-20T12:24:11.495Z,42.92
2019-05-20T12:25:11.490Z,43.83
2019-05-20T12:26:11.472Z,44.74
2019-05-20T12:27:11.459Z,45.04
2019-05-20T12:28:11.465Z,44.84
2019-05-20T12:29:11.432Z,44.84
2019-05-20T12:30:11.504Z,45.04
2019-05-20T12:31:11.425Z,45.12
2019-05-20T12:32:11.392Z,45.01
2019-05-20T12:33:19.674Z,44.90
2019-05-20T12:34:12.378Z,44.31
2019-05-20T12:35:11.403Z,44.60
2019-05-20T12:36:11.443Z,44.38
2019-05-20T12:37:11.355Z,44.68
2019-05-20T12:38:11.332Z,44.18
2019-05-20T12:39:11.331Z,44.68
2019-05-20T12:40:11.329Z,44.58
2019-05-20T12:41:11.316Z,45.19
2019-05-20T12:42:11.838Z,45.19
2019-05-20T12:43:11.276Z,44.87
2019-05-20T12:44:13.106Z,44.97
2019-05-20T12:45:11.297Z,44.87
2019-05-20T12:46:11.258Z,44.60
2019-05-20T12:47:11.251Z,44.38
2019-05-20T12:48:11.246Z,44.78
2019-05-20T12:49:11.397Z,44.80
2019-05-20T12:50:11.221Z,44.90
2019-05-20T12:51:14.377Z,44.80
2019-05-20T12:52:11.205Z,45.19